createdAt,value
2022-10-20T00:00:19.358Z,50.41
2022-10-20T00:02:46.011Z,50.52
2022-10-20T00:05:12.568Z,51.97
2022-10-20T00:07:39.113Z,52.09
2022-10-20T00:10:06.161Z,52.35
2022-10-20T00:12:32.820Z,52.85
2022-10-20T00:14:59.625Z,52.36
2022-10-20T00:17:26.241Z,52.06
2022-10-20T00:19:52.866Z,52.58
2022-10-20T00:22:19.613Z,52.85
2022-10-20T00:24:46.166Z,52.86
2022-10-20T00:27:12.723Z,52.86
2022-10-20T00:29:39.339Z,53.27
2022-10-20T00:32:05.878Z,52.95
2022-10-20T00:34:33.106Z,53.12
2022-10-20T00:36:59.626Z,52.90
2022-10-20T00:39:26.193Z,53.09
2022-10-20T00:41:52.709Z,52.77
2022-10-20T00:44:48.170Z,52.41
2022-10-20T00:47:22.290Z,53.27
2022-10-20T00:49:50.230Z,52.47
2022-10-20T00:52:20.359Z,52.27
2022-10-20T00:54:48.026Z,52.31
2022-10-20T00:57:14.671Z,52.43
2022-10-20T00:59:41.366Z,52.79
2022-10-20T01:02:09.354Z,54.31
2022-10-20T01:04:37.607Z,52.95
2022-10-20T01:07:04.865Z,52.05
2022-10-20T01:09:32.378Z,52.95
2022-10-20T01:12:17.158Z,53.13
2022-10-20T01:14:51.928Z,53.39
2022-10-20T01:17:29.169Z,54.68
2022-10-20T01:20:09.469Z,53.69
2022-10-20T01:23:13.371Z,54.41
2022-10-20T01:25:50.497Z,54.47
2022-10-20T01:28:34.584Z,53.55
2022-10-20T01:31:07.552Z,54.15
2022-10-20T01:33:48.593Z,53.67
2022-10-20T01:36:30.902Z,52.08
2022-10-20T01:39:42.807Z,54.17
2022-10-20T01:42:16.268Z,54.51
2022-10-20T01:44:44.248Z,54.18
2022-10-20T01:47:13.151Z,53.61
2022-10-20T01:49:44.117Z,54.37
2022-10-20T01:52:11.909Z,53.75
2022-10-20T01:54:39.157Z,54.02
2022-10-20T01:57:33.610Z,53.27
2022-10-20T02:00:14.884Z,52.72
2022-10-20T02:03:29.324Z,53.46
2022-10-20T02:06:28.595Z,54.37
2022-10-20T02:09:01.663Z,54.34
2022-10-20T02:11:43.885Z,53.63
2022-10-20T02:14:14.169Z,54.10
2022-10-20T02:16:47.537Z,53.27
2022-10-20T02:19:18.530Z,52.53
2022-10-20T02:21:46.704Z,52.70
2022-10-20T02:24:15.912Z,53.67
2022-10-20T02:26:43.577Z,53.77
2022-10-20T02:29:17.701Z,53.83
2022-10-20T02:31:44.954Z,52.27
2022-10-20T02:34:12.476Z,52.60
2022-10-20T02:36:41.871Z,52.56
2022-10-20T02:39:09.147Z,52.60
2022-10-20T02:41:36.322Z,52.82
2022-10-20T02:44:03.469Z,52.08
2022-10-20T02:46:30.039Z,53.28
2022-10-20T02:48:56.617Z,53.52
2022-10-20T02:51:23.249Z,52.64
2022-10-20T02:53:51.058Z,52.22
2022-10-20T02:56:18.052Z,52.79
2022-10-20T02:58:44.553Z,52.69
2022-10-20T03:01:11.590Z,52.93
2022-10-20T03:03:38.122Z,54.18
2022-10-20T03:06:12.406Z,54.20
2022-10-20T03:08:39.244Z,54.40
2022-10-20T03:11:06.327Z,54.86
2022-10-20T03:13:33.005Z,53.69
2022-10-20T03:16:00.175Z,54.53
2022-10-20T03:18:26.962Z,53.24
2022-10-20T03:20:54.427Z,51.85
2022-10-20T03:23:21.506Z,51.74
2022-10-20T03:25:48.579Z,53.26
2022-10-20T03:28:15.459Z,54.70
2022-10-20T03:30:42.055Z,54.50
2022-10-20T03:33:08.627Z,53.54
2022-10-20T03:35:35.142Z,53.78
2022-10-20T03:38:01.666Z,53.55
2022-10-20T03:40:28.613Z,52.87
2022-10-20T03:42:55.189Z,52.43
2022-10-20T03:45:21.783Z,52.82
2022-10-20T03:47:48.700Z,53.00
2022-10-20T03:50:15.218Z,52.74
2022-10-20T03:52:43.160Z,53.06
2022-10-20T03:55:09.766Z,52.70
2022-10-20T03:57:36.609Z,53.24
2022-10-20T04:00:03.903Z,53.69
2022-10-20T04:02:41.557Z,54.29
2022-10-20T04:05:09.353Z,52.68
2022-10-20T04:07:36.175Z,53.14
2022-10-20T04:10:03.684Z,53.58
2022-10-20T04:12:30.229Z,53.89
2022-10-20T04:14:56.778Z,52.70
2022-10-20T04:17:23.833Z,53.04
2022-10-20T04:19:50.360Z,54.33
2022-10-20T04:22:16.918Z,53.54
2022-10-20T04:24:43.488Z,53.10
2022-10-20T04:27:10.252Z,55.16
2022-10-20T04:29:36.813Z,55.00
2022-10-20T04:32:03.532Z,54.89
2022-10-20T04:34:30.165Z,55.73
2022-10-20T04:36:57.285Z,54.15
2022-10-20T04:39:25.209Z,53.76
2022-10-20T04:41:51.932Z,52.94
2022-10-20T04:44:18.732Z,53.36
2022-10-20T04:46:45.493Z,55.05
2022-10-20T04:49:12.030Z,53.85
2022-10-20T04:51:38.606Z,53.91
2022-10-20T04:56:37.309Z,53.49
2022-10-20T04:59:05.689Z,54.08
2022-10-20T05:01:34.050Z,55.24
2022-10-20T05:04:00.690Z,54.40
2022-10-20T05:06:30.614Z,54.21
2022-10-20T05:09:00.398Z,54.70
2022-10-20T05:11:29.552Z,54.30
2022-10-20T05:13:56.137Z,54.35
2022-10-20T05:16:23.384Z,54.98
2022-10-20T05:18:52.250Z,55.88
2022-10-20T05:21:22.588Z,56.44
2022-10-20T05:23:49.739Z,55.32
2022-10-20T05:26:18.917Z,56.76
2022-10-20T05:28:48.181Z,56.03
2022-10-20T05:31:17.820Z,55.70
2022-10-20T05:33:46.535Z,54.63
2022-10-20T05:36:19.309Z,55.25
2022-10-20T05:38:48.931Z,56.55
2022-10-20T05:41:18.454Z,55.36
2022-10-20T05:43:50.168Z,55.05
2022-10-20T05:46:18.157Z,55.91
2022-10-20T05:48:45.939Z,56.19
2022-10-20T05:51:16.030Z,55.29
2022-10-20T05:53:43.775Z,55.62
2022-10-20T05:56:14.754Z,55.04
2022-10-20T05:58:42.962Z,55.03
2022-10-20T06:01:26.112Z,55.00
2022-10-20T06:03:58.180Z,54.66
2022-10-20T06:06:27.577Z,56.40
2022-10-20T06:08:55.596Z,56.26
2022-10-20T06:11:23.450Z,55.24
2022-10-20T06:13:52.838Z,55.49
2022-10-20T06:16:25.442Z,55.45
2022-10-20T06:18:52.947Z,56.66
2022-10-20T06:21:22.025Z,56.76
2022-10-20T06:23:49.514Z,55.89
2022-10-20T06:26:18.597Z,55.43
2022-10-20T06:28:47.353Z,54.56
2022-10-20T06:31:17.256Z,55.10
2022-10-20T06:33:44.763Z,54.75
2022-10-20T06:36:12.469Z,55.56
2022-10-20T06:38:39.946Z,55.50
2022-10-20T06:41:08.988Z,55.60
2022-10-20T06:43:35.808Z,54.60
2022-10-20T06:46:05.230Z,54.34
2022-10-20T06:48:33.501Z,53.44
2022-10-20T06:51:08.634Z,54.29
2022-10-20T06:53:36.369Z,54.04
2022-10-20T06:56:06.313Z,53.07
2022-10-20T06:58:34.799Z,55.44
2022-10-20T07:01:27.403Z,54.69
2022-10-20T07:03:56.374Z,55.24
2022-10-20T07:06:28.467Z,55.11
2022-10-20T07:08:56.925Z,54.93
2022-10-20T07:11:26.818Z,54.97
2022-10-20T07:13:53.706Z,54.28
2022-10-20T07:16:23.433Z,52.78
2022-10-20T07:18:50.436Z,52.63
2022-10-20T07:21:19.626Z,52.10
2022-10-20T07:23:47.408Z,51.73
2022-10-20T07:26:18.170Z,51.28
2022-10-20T07:28:50.871Z,52.07
2022-10-20T07:31:30.646Z,51.63
2022-10-20T07:34:07.415Z,51.00
2022-10-20T07:36:44.232Z,50.19
2022-10-20T07:39:13.031Z,49.01
2022-10-20T07:41:40.071Z,48.66
2022-10-20T07:44:07.673Z,49.89
2022-10-20T07:46:34.429Z,49.76
2022-10-20T07:49:43.068Z,49.19
2022-10-20T07:51:48.138Z,48.13
2022-10-20T07:54:14.710Z,49.41
2022-10-20T07:56:44.658Z,49.73
2022-10-20T07:59:13.112Z,50.17
2022-10-20T08:01:40.060Z,49.56
2022-10-20T08:04:07.163Z,48.87
2022-10-20T08:06:34.165Z,47.40
2022-10-20T08:09:01.298Z,44.96
2022-10-20T08:11:27.934Z,44.98
2022-10-20T08:13:54.712Z,44.32
2022-10-20T08:16:30.887Z,42.82
2022-10-20T08:19:01.808Z,43.21
2022-10-20T08:21:28.823Z,43.60
2022-10-20T08:26:24.890Z,45.82
2022-10-20T08:28:54.342Z,46.69
2022-10-20T08:31:21.412Z,46.75
2022-10-20T08:33:52.398Z,46.93
2022-10-20T08:36:20.611Z,46.69
2022-10-20T08:38:47.331Z,46.34
2022-10-20T08:41:23.108Z,46.22
2022-10-20T08:43:53.542Z,45.58
2022-10-20T08:46:23.059Z,44.37
2022-10-20T08:48:50.106Z,42.70
2022-10-20T08:51:32.480Z,42.85
2022-10-20T08:54:02.015Z,41.92
2022-10-20T08:56:32.996Z,41.52
2022-10-20T08:58:59.642Z,40.73
2022-10-20T09:01:30.801Z,40.25
2022-10-20T09:04:00.117Z,40.41
2022-10-20T09:06:26.669Z,40.82
2022-10-20T09:08:55.645Z,40.72
2022-10-20T09:11:26.061Z,42.17
2022-10-20T09:13:53.793Z,42.63
2022-10-20T09:16:42.347Z,41.03
2022-10-20T09:19:23.213Z,41.20
2022-10-20T09:21:53.548Z,40.32
2022-10-20T09:24:27.493Z,39.75
2022-10-20T09:27:01.452Z,40.16
2022-10-20T09:29:37.203Z,40.29
2022-10-20T09:32:44.307Z,39.17
2022-10-20T09:35:31.719Z,38.32
2022-10-20T09:38:16.502Z,39.84
2022-10-20T09:40:46.283Z,39.82
2022-10-20T09:43:17.949Z,41.27
2022-10-20T09:45:53.316Z,40.41
2022-10-20T09:48:27.182Z,40.20
2022-10-20T09:50:56.889Z,40.48
2022-10-20T09:53:32.327Z,41.08
2022-10-20T09:55:59.403Z,41.16
2022-10-20T09:58:32.904Z,41.92
2022-10-20T10:01:19.875Z,42.69
2022-10-20T10:03:51.536Z,43.38
2022-10-20T10:06:43.459Z,43.81
2022-10-20T10:09:27.759Z,43.58
2022-10-20T10:12:00.778Z,44.16
2022-10-20T10:14:29.514Z,44.37
2022-10-20T10:16:56.498Z,45.02
2022-10-20T10:19:28.581Z,44.63
2022-10-20T10:21:57.769Z,44.76
2022-10-20T10:24:43.942Z,43.49
2022-10-20T10:27:29.473Z,44.49
2022-10-20T10:30:27.673Z,43.38
2022-10-20T10:32:55.117Z,44.30
2022-10-20T10:35:38.521Z,44.33
2022-10-20T10:38:05.311Z,45.59
2022-10-20T10:40:36.108Z,45.12
2022-10-20T10:43:24.844Z,43.51
2022-10-20T10:46:02.956Z,43.42
2022-10-20T10:48:52.514Z,43.11
2022-10-20T10:51:48.059Z,43.08
2022-10-20T10:54:25.629Z,42.48
2022-10-20T10:56:58.884Z,44.17
2022-10-20T10:59:36.085Z,43.32
2022-10-20T11:02:41.435Z,43.99
2022-10-20T11:05:30.589Z,43.39
2022-10-20T11:08:09.653Z,43.60
2022-10-20T11:10:54.536Z,44.48
2022-10-20T11:13:48.098Z,44.16
2022-10-20T11:16:24.566Z,44.51
2022-10-20T11:19:11.131Z,45.17
2022-10-20T11:22:17.306Z,44.96
2022-10-20T11:24:46.674Z,45.40
2022-10-20T11:27:26.721Z,45.71
2022-10-20T11:30:04.598Z,45.76
2022-10-20T11:33:01.189Z,46.66
2022-10-20T11:35:39.407Z,46.42
2022-10-20T11:38:25.424Z,46.00
2022-10-20T11:41:03.032Z,47.19
2022-10-20T11:43:43.122Z,45.96
2022-10-20T11:46:14.754Z,46.42
2022-10-20T11:48:53.953Z,46.33
2022-10-20T11:51:40.270Z,46.48
2022-10-20T11:54:34.780Z,45.65
2022-10-20T11:57:23.084Z,44.58
2022-10-20T11:59:57.693Z,46.37
2022-10-20T12:03:01.791Z,47.08
2022-10-20T12:05:50.148Z,46.61
2022-10-20T12:08:30.535Z,46.22
2022-10-20T12:11:28.959Z,45.37
2022-10-20T12:14:15.586Z,45.38
2022-10-20T12:16:54.592Z,44.90
2022-10-20T12:19:22.394Z,45.01
2022-10-20T12:22:13.354Z,44.87
2022-10-20T12:24:42.826Z,45.34
2022-10-20T12:27:09.708Z,45.19
2022-10-20T12:29:36.214Z,45.08
2022-10-20T12:32:21.413Z,45.81
2022-10-20T12:34:51.910Z,46.13
2022-10-20T12:37:24.175Z,45.46
2022-10-20T12:39:54.281Z,44.73
2022-10-20T12:42:32.502Z,45.13
2022-10-20T12:45:05.026Z,45.25
2022-10-20T12:47:34.959Z,46.11
2022-10-20T12:50:27.900Z,46.65
2022-10-20T12:52:55.303Z,46.50
2022-10-20T12:55:31.268Z,46.21
2022-10-20T12:58:37.774Z,45.29
2022-10-20T13:01:11.166Z,44.91
2022-10-20T13:03:48.430Z,45.58
2022-10-20T13:06:24.109Z,45.77
2022-10-20T13:09:21.226Z,44.59
2022-10-20T13:11:57.213Z,45.26
2022-10-20T13:14:48.342Z,45.61
2022-10-20T13:17:22.883Z,45.33
2022-10-20T13:20:01.243Z,44.90
2022-10-20T13:23:10.010Z,45.23
2022-10-20T13:25:40.479Z,45.56
2022-10-20T13:28:12.755Z,44.63
2022-10-20T13:31:06.563Z,44.59
2022-10-20T13:34:03.139Z,43.84
2022-10-20T13:36:39.400Z,44.14
2022-10-20T13:39:19.987Z,44.75
2022-10-20T13:42:04.403Z,43.79
2022-10-20T13:44:55.871Z,44.16
2022-10-20T13:47:48.972Z,44.59
2022-10-20T13:50:21.316Z,45.01
2022-10-20T13:52:52.759Z,44.72
2022-10-20T13:55:27.015Z,44.19
2022-10-20T13:57:56.837Z,44.49
2022-10-20T14:00:29.234Z,44.27
2022-10-20T14:03:04.738Z,43.87
2022-10-20T14:05:38.232Z,43.60
2022-10-20T14:08:10.938Z,43.72
2022-10-20T14:10:45.338Z,43.79
2022-10-20T14:13:16.575Z,43.80
2022-10-20T14:15:53.394Z,43.74
2022-10-20T14:18:35.074Z,43.39
2022-10-20T14:21:05.306Z,44.28
2022-10-20T14:23:38.337Z,43.76
2022-10-20T14:26:11.898Z,44.03
2022-10-20T14:28:40.102Z,43.44
2022-10-20T14:31:07.992Z,44.35
2022-10-20T14:33:40.490Z,44.48
2022-10-20T14:36:18.655Z,44.02
2022-10-20T14:38:48.679Z,43.96
2022-10-20T14:41:29.521Z,42.89
2022-10-20T14:44:05.046Z,43.27
2022-10-20T14:46:46.701Z,43.27
2022-10-20T14:49:22.410Z,43.52
2022-10-20T14:51:59.236Z,43.98
2022-10-20T14:54:32.573Z,45.10
2022-10-20T14:57:00.706Z,45.21
2022-10-20T14:59:32.791Z,45.28
2022-10-20T15:02:10.220Z,44.92
2022-10-20T15:04:41.751Z,44.22
2022-10-20T15:07:15.903Z,43.14
2022-10-20T15:09:44.712Z,43.19
2022-10-20T15:12:25.700Z,43.34
2022-10-20T15:14:54.462Z,43.68
2022-10-20T15:18:09.561Z,43.75
2022-10-20T15:20:38.627Z,43.81
2022-10-20T15:23:10.855Z,44.27
2022-10-20T15:25:50.075Z,44.80
2022-10-20T15:28:25.534Z,45.19
2022-10-20T15:30:52.536Z,44.99
2022-10-20T15:33:19.265Z,45.89
2022-10-20T15:35:46.903Z,44.73
2022-10-20T15:38:14.356Z,45.26
2022-10-20T15:40:41.603Z,45.64
2022-10-20T15:43:17.434Z,45.45
2022-10-20T15:45:53.307Z,45.09
2022-10-20T15:48:20.509Z,45.48
2022-10-20T15:50:47.314Z,45.62
2022-10-20T15:53:13.959Z,46.19
2022-10-20T15:55:44.189Z,46.92
2022-10-20T15:58:10.846Z,46.51
2022-10-20T16:00:38.248Z,45.12
2022-10-20T16:03:05.751Z,45.28
2022-10-20T16:05:33.009Z,45.59
2022-10-20T16:07:59.864Z,46.82
2022-10-20T16:10:30.166Z,46.44
2022-10-20T16:12:58.039Z,46.25
2022-10-20T16:15:30.180Z,45.56
2022-10-20T16:17:58.080Z,46.82
2022-10-20T16:20:24.766Z,45.68
2022-10-20T16:22:52.470Z,46.49
2022-10-20T16:25:19.127Z,46.56
2022-10-20T16:27:46.200Z,46.33
2022-10-20T16:30:12.821Z,46.65
2022-10-20T16:32:39.734Z,47.47
2022-10-20T16:35:06.793Z,47.17
2022-10-20T16:37:33.534Z,46.70
2022-10-20T16:40:00.428Z,47.06
2022-10-20T16:42:30.129Z,47.01
2022-10-20T16:44:57.328Z,46.47
2022-10-20T16:47:25.761Z,46.34
2022-10-20T16:49:53.262Z,46.14
2022-10-20T16:52:20.160Z,47.31
2022-10-20T16:54:46.718Z,47.33
2022-10-20T16:57:14.762Z,46.81
2022-10-20T16:59:42.936Z,48.00
2022-10-20T17:02:12.269Z,47.93
2022-10-20T17:04:39.088Z,48.30
2022-10-20T17:07:05.992Z,47.43
2022-10-20T17:09:32.641Z,48.45
2022-10-20T17:12:00.914Z,49.02
2022-10-20T17:14:27.530Z,50.23
2022-10-20T17:16:54.225Z,51.34
2022-10-20T17:19:21.074Z,50.66
2022-10-20T17:21:49.396Z,51.38
2022-10-20T17:24:17.167Z,51.69
2022-10-20T17:26:44.302Z,50.82
2022-10-20T17:29:10.970Z,50.50
2022-10-20T17:31:38.427Z,49.15
2022-10-20T17:34:05.569Z,50.22
2022-10-20T17:36:32.499Z,50.74
2022-10-20T17:39:08.498Z,51.01
2022-10-20T17:41:36.714Z,50.62
2022-10-20T17:44:04.607Z,50.28
2022-10-20T17:46:31.841Z,50.39
2022-10-20T17:49:01.591Z,50.79
2022-10-20T17:51:31.811Z,51.81
2022-10-20T17:54:02.238Z,51.09
2022-10-20T17:56:31.914Z,51.09
2022-10-20T17:59:00.120Z,51.57
2022-10-20T18:01:32.101Z,52.42
2022-10-20T18:04:02.964Z,53.50
2022-10-20T18:06:34.068Z,52.52
2022-10-20T18:09:07.090Z,53.40
2022-10-20T18:11:35.240Z,52.06
2022-10-20T18:14:02.418Z,52.35
2022-10-20T18:16:31.467Z,53.74
2022-10-20T18:18:59.321Z,53.83
2022-10-20T18:21:27.638Z,54.41
2022-10-20T18:24:01.955Z,53.55
2022-10-20T18:26:30.378Z,52.91
2022-10-20T18:28:58.187Z,53.39
2022-10-20T18:31:28.903Z,54.11
2022-10-20T18:34:04.027Z,55.10
2022-10-20T18:36:33.143Z,55.09
2022-10-20T18:39:00.524Z,55.59
2022-10-20T18:41:29.953Z,55.45
2022-10-20T18:44:01.154Z,54.59
2022-10-20T18:46:33.220Z,56.80
2022-10-20T18:49:03.247Z,56.65
2022-10-20T18:51:31.412Z,56.05
2022-10-20T18:54:00.648Z,56.90
2022-10-20T18:56:29.707Z,56.62
2022-10-20T18:58:56.190Z,57.97
2022-10-20T19:01:28.201Z,57.92
2022-10-20T19:03:56.435Z,58.89
2022-10-20T19:06:31.861Z,58.81
2022-10-20T19:09:00.916Z,58.16
2022-10-20T19:11:31.926Z,56.71
2022-10-20T19:13:59.305Z,57.42
2022-10-20T19:16:29.112Z,57.44
2022-10-20T19:18:58.118Z,58.18
2022-10-20T19:21:25.894Z,56.46
2022-10-20T19:23:58.151Z,56.82
2022-10-20T19:26:31.146Z,55.54
2022-10-20T19:29:01.712Z,56.97
2022-10-20T19:31:32.518Z,57.06
2022-10-20T19:34:08.056Z,56.42
2022-10-20T19:36:34.706Z,56.95
2022-10-20T19:39:01.302Z,58.15
2022-10-20T19:41:28.293Z,58.55
2022-10-20T19:43:54.864Z,58.86
2022-10-20T19:46:21.953Z,58.71
2022-10-20T19:48:49.899Z,59.69
2022-10-20T19:51:18.843Z,59.59
2022-10-20T19:53:46.627Z,60.22
2022-10-20T19:56:13.832Z,59.42
2022-10-20T19:58:44.134Z,59.52
2022-10-20T20:01:14.009Z,59.67
2022-10-20T20:03:40.859Z,59.81
2022-10-20T20:06:08.887Z,59.46
2022-10-20T20:08:36.399Z,58.72
2022-10-20T20:11:04.846Z,59.07
2022-10-20T20:13:32.278Z,59.72
2022-10-20T20:16:07.018Z,59.58
2022-10-20T20:18:35.180Z,60.19
2022-10-20T20:21:03.850Z,60.63
2022-10-20T20:23:47.402Z,60.79
2022-10-20T20:26:17.224Z,61.23
2022-10-20T20:28:43.752Z,60.19
2022-10-20T20:31:11.837Z,60.93
2022-10-20T20:33:38.922Z,60.41
2022-10-20T20:36:08.233Z,60.65
2022-10-20T20:38:37.708Z,60.07
2022-10-20T20:41:11.859Z,61.46
2022-10-20T20:43:41.001Z,61.03
2022-10-20T20:46:16.091Z,61.29
2022-10-20T20:48:43.512Z,61.38
2022-10-20T20:51:11.435Z,61.28
2022-10-20T20:53:39.507Z,61.46
2022-10-20T20:56:12.569Z,61.87
2022-10-20T20:58:40.688Z,61.46
2022-10-20T21:01:18.736Z,61.70
2022-10-20T21:03:45.716Z,63.77
2022-10-20T21:06:17.070Z,63.20
2022-10-20T21:08:50.081Z,61.93
2022-10-20T21:11:19.441Z,61.24
2022-10-20T21:13:47.609Z,62.56
2022-10-20T21:16:19.768Z,61.95
2022-10-20T21:18:49.010Z,61.68
2022-10-20T21:21:27.937Z,61.56
2022-10-20T21:23:56.382Z,62.41
2022-10-20T21:26:23.232Z,62.01
2022-10-20T21:28:50.518Z,60.36
2022-10-20T21:31:18.858Z,61.86
2022-10-20T21:33:49.359Z,61.84
2022-10-20T21:36:17.822Z,61.19
2022-10-20T21:38:44.648Z,60.95
2022-10-20T21:41:16.832Z,60.80
2022-10-20T21:43:46.382Z,60.37
2022-10-20T21:46:18.528Z,60.01
2022-10-20T21:48:47.093Z,59.42
2022-10-20T21:51:26.038Z,60.20
2022-10-20T21:53:57.186Z,59.34
2022-10-20T21:56:24.594Z,59.02
2022-10-20T21:58:51.578Z,59.87
2022-10-20T22:01:22.030Z,61.16
2022-10-20T22:03:50.394Z,60.43
2022-10-20T22:06:18.922Z,60.90
2022-10-20T22:08:48.128Z,61.96
2022-10-20T22:11:17.744Z,62.00
2022-10-20T22:13:44.813Z,61.36
2022-10-20T22:16:17.755Z,59.64
2022-10-20T22:18:45.089Z,59.88
2022-10-20T22:21:15.898Z,60.05
2022-10-20T22:23:43.605Z,59.42
2022-10-20T22:26:11.606Z,60.46
2022-10-20T22:28:38.698Z,58.62
2022-10-20T22:31:07.194Z,58.01
2022-10-20T22:33:34.259Z,58.76
2022-10-20T22:36:01.084Z,58.98
2022-10-20T22:38:27.637Z,59.29
2022-10-20T22:41:01.530Z,60.16
2022-10-20T22:43:30.125Z,58.60
2022-10-20T22:45:57.208Z,59.45
2022-10-20T22:48:25.079Z,59.16
2022-10-20T22:50:51.658Z,60.06
2022-10-20T22:53:18.274Z,59.97
2022-10-20T22:55:45.216Z,59.73
2022-10-20T22:58:11.934Z,59.55
2022-10-20T23:00:40.016Z,59.13
2022-10-20T23:03:06.742Z,59.46
2022-10-20T23:05:33.478Z,60.81
2022-10-20T23:08:00.290Z,60.93
2022-10-20T23:10:26.973Z,59.58
2022-10-20T23:12:53.525Z,59.48
2022-10-20T23:15:20.309Z,59.66
2022-10-20T23:17:46.999Z,59.22
2022-10-20T23:20:13.707Z,58.18
2022-10-20T23:22:40.713Z,56.90
2022-10-20T23:25:07.774Z,56.70
2022-10-20T23:27:35.536Z,57.09
2022-10-20T23:30:02.482Z,57.03
2022-10-20T23:32:29.681Z,57.60
2022-10-20T23:34:56.303Z,57.33
2022-10-20T23:37:23.959Z,57.74
2022-10-20T23:39:50.665Z,57.85
2022-10-20T23:42:17.566Z,58.37
2022-10-20T23:44:44.175Z,59.16
2022-10-20T23:47:10.701Z,58.93
2022-10-20T23:49:37.253Z,58.70
2022-10-20T23:52:03.943Z,57.38
2022-10-20T23:54:30.889Z,59.06
2022-10-20T23:56:57.623Z,59.17
2022-10-20T23:59:24.184Z,58.10
